createdAt,value
2018-05-24T00:00:31.621Z,91.10
2018-05-24T00:02:59.873Z,91.30
2018-05-24T00:05:28.126Z,91.50
2018-05-24T00:07:56.989Z,91.70
2018-05-24T00:10:26.240Z,91.80
2018-05-24T00:12:54.489Z,91.90
2018-05-24T00:15:22.704Z,91.70
2018-05-24T00:17:50.937Z,91.80
2018-05-24T00:20:19.148Z,91.80
2018-05-24T00:22:47.411Z,91.80
2018-05-24T00:25:15.669Z,91.70
2018-05-24T00:27:43.869Z,91.70
2018-05-24T00:30:12.120Z,91.70
2018-05-24T00:32:40.361Z,91.70
2018-05-24T00:35:09.362Z,91.40
2018-05-24T00:37:38.345Z,91.40
2018-05-24T00:47:49.182Z,91.40
2018-05-24T00:50:18.162Z,91.40
2018-05-24T00:52:47.171Z,91.60
2018-05-24T00:55:27.379Z,91.50
2018-05-24T00:57:55.586Z,91.50
2018-05-24T01:00:24.574Z,91.60
2018-05-24T01:02:52.814Z,91.60
2018-05-24T01:05:21.062Z,91.60
2018-05-24T01:07:49.294Z,91.50
2018-05-24T01:12:51.382Z,91.70
2018-05-24T01:15:20.373Z,91.60
2018-05-24T01:17:48.632Z,91.50
2018-05-24T01:20:16.849Z,91.70
2018-05-24T01:22:45.097Z,91.50
2018-05-24T01:25:13.328Z,91.40
2018-05-24T01:27:41.586Z,91.60
2018-05-24T01:30:09.820Z,91.40
2018-05-24T01:32:38.103Z,91.30
2018-05-24T01:35:06.345Z,91.20
2018-05-24T01:37:46.256Z,91.30
2018-05-24T01:40:14.501Z,91.30
2018-05-24T01:42:43.498Z,91.50
2018-05-24T01:45:11.778Z,91.50
2018-05-24T01:47:40.003Z,91.40
2018-05-24T01:50:08.218Z,91.40
2018-05-24T01:52:36.442Z,91.30
2018-05-24T01:55:04.670Z,91.40
2018-05-24T01:57:33.664Z,91.30
2018-05-24T02:00:02.842Z,91.40
2018-05-24T02:02:31.088Z,91.40
2018-05-24T02:04:59.306Z,91.60
2018-05-24T02:07:27.546Z,91.90
2018-05-24T02:09:55.765Z,91.70
2018-05-24T02:12:24.842Z,91.70
2018-05-24T02:14:53.043Z,91.70
2018-05-24T02:17:22.025Z,91.40
2018-05-24T02:19:51.026Z,91.40
2018-05-24T02:22:20.033Z,91.40
2018-05-24T02:24:48.278Z,91.30
2018-05-24T02:27:16.505Z,91.40
2018-05-24T02:29:44.746Z,91.40
2018-05-24T02:32:13.784Z,91.40
2018-05-24T02:34:42.003Z,91.40
2018-05-24T02:37:10.231Z,91.50
2018-05-24T02:39:38.452Z,91.60
2018-05-24T02:42:06.711Z,91.70
2018-05-24T02:44:34.951Z,91.60
2018-05-24T02:47:03.215Z,91.60
2018-05-24T02:49:31.454Z,91.40
2018-05-24T02:51:59.688Z,91.50
2018-05-24T02:54:27.903Z,91.50
2018-05-24T02:56:56.175Z,91.50
2018-05-24T02:59:24.401Z,91.50
2018-05-24T03:01:52.621Z,91.50
2018-05-24T03:04:20.859Z,91.70
2018-05-24T03:06:49.126Z,91.70
2018-05-24T03:09:17.347Z,91.80
2018-05-24T03:11:45.576Z,91.90
2018-05-24T03:14:13.824Z,91.80
2018-05-24T03:16:42.834Z,91.70
2018-05-24T03:19:11.073Z,91.70
2018-05-24T03:21:39.310Z,91.60
2018-05-24T03:24:07.593Z,91.90
2018-05-24T03:26:35.904Z,91.80
2018-05-24T03:29:04.051Z,91.80
2018-05-24T03:31:32.310Z,92.00
2018-05-24T03:34:00.567Z,91.80
2018-05-24T03:36:28.795Z,91.70
2018-05-24T03:38:57.024Z,91.80
2018-05-24T03:41:26.542Z,91.60
2018-05-24T03:43:54.782Z,91.60
2018-05-24T03:46:23.004Z,91.60
2018-05-24T03:48:51.235Z,91.70
2018-05-24T03:51:19.614Z,91.70
2018-05-24T03:53:47.810Z,91.80
2018-05-24T03:56:16.083Z,91.90
2018-05-24T03:58:44.303Z,91.90
2018-05-24T04:01:24.447Z,91.90
2018-05-24T04:03:52.663Z,92.10
2018-05-24T04:06:21.668Z,92.20
2018-05-24T04:08:49.906Z,92.20
2018-05-24T04:11:18.135Z,92.20
2018-05-24T04:13:46.369Z,92.30
2018-05-24T04:16:14.602Z,92.20
2018-05-24T04:18:42.848Z,92.20
2018-05-24T04:21:11.088Z,92.20
2018-05-24T04:23:39.332Z,92.20
2018-05-24T04:26:07.559Z,92.20
2018-05-24T04:28:36.565Z,92.20
2018-05-24T04:31:04.774Z,92.20
2018-05-24T04:33:33.026Z,92.20
2018-05-24T04:36:01.344Z,92.00
2018-05-24T04:38:29.549Z,92.00
2018-05-24T04:40:57.796Z,92.20
2018-05-24T04:43:26.029Z,92.60
2018-05-24T04:45:54.263Z,92.20
2018-05-24T04:48:23.277Z,92.30
2018-05-24T04:50:52.256Z,92.00
2018-05-24T04:53:21.269Z,92.30
2018-05-24T04:55:49.547Z,92.30
2018-05-24T04:58:17.769Z,92.30
2018-05-24T05:00:48.632Z,92.20
2018-05-24T05:03:17.346Z,92.10
2018-05-24T05:05:45.568Z,92.10
2018-05-24T05:08:13.792Z,92.10
2018-05-24T05:10:42.019Z,92.10
2018-05-24T05:13:10.254Z,91.90
2018-05-24T05:15:38.498Z,92.00
2018-05-24T05:18:07.497Z,92.00
2018-05-24T05:20:36.494Z,91.60
2018-05-24T05:23:05.512Z,92.00
2018-05-24T05:25:34.479Z,91.90
2018-05-24T05:28:03.564Z,92.20
2018-05-24T05:30:31.802Z,92.20
2018-05-24T05:33:00.027Z,92.00
2018-05-24T05:35:28.398Z,91.80
2018-05-24T05:37:56.619Z,91.60
2018-05-24T05:40:24.877Z,91.50
2018-05-24T05:42:53.123Z,91.40
2018-05-24T05:45:21.318Z,91.70
2018-05-24T05:47:49.630Z,91.30
2018-05-24T05:50:17.911Z,91.30
2018-05-24T05:52:46.121Z,91.20
2018-05-24T05:55:14.383Z,91.10
2018-05-24T05:57:42.597Z,91.00
2018-05-24T06:00:11.618Z,91.10
2018-05-24T06:02:39.874Z,91.10
2018-05-24T06:05:08.135Z,90.80
2018-05-24T06:07:37.137Z,90.60
2018-05-24T06:10:05.382Z,90.60
2018-05-24T06:12:33.622Z,90.30
2018-05-24T06:15:02.631Z,90.20
2018-05-24T06:17:30.895Z,90.20
2018-05-24T06:19:59.107Z,90.20
2018-05-24T06:22:27.352Z,90.00
2018-05-24T06:24:55.617Z,89.90
2018-05-24T06:27:23.861Z,89.80
2018-05-24T06:29:52.114Z,89.70
2018-05-24T06:32:20.357Z,89.80
2018-05-24T06:34:48.668Z,89.50
2018-05-24T06:37:16.877Z,88.90
2018-05-24T06:39:45.093Z,88.70
2018-05-24T06:42:13.378Z,88.70
2018-05-24T06:44:41.625Z,90.00
2018-05-24T06:47:09.889Z,89.80
2018-05-24T06:49:38.130Z,89.40
2018-05-24T06:52:06.464Z,89.30
2018-05-24T06:54:34.758Z,88.80
2018-05-24T06:57:02.972Z,88.30
2018-05-24T06:59:31.194Z,88.10
2018-05-24T07:02:00.420Z,87.20
2018-05-24T07:04:29.427Z,85.20
2018-05-24T07:06:57.704Z,83.20
2018-05-24T07:09:25.926Z,81.70
2018-05-24T07:11:54.204Z,76.50
2018-05-24T07:14:22.423Z,67.30
2018-05-24T07:16:51.515Z,57.10
2018-05-24T07:19:20.524Z,55.00
2018-05-24T07:21:48.970Z,54.90
2018-05-24T07:24:17.165Z,56.80
2018-05-24T07:26:46.207Z,64.30
2018-05-24T07:29:14.416Z,64.20
2018-05-24T07:31:42.654Z,67.60
2018-05-24T07:34:10.897Z,70.60
2018-05-24T07:36:39.129Z,71.00
2018-05-24T07:39:07.372Z,70.30
2018-05-24T07:41:35.594Z,70.50
2018-05-24T07:44:03.898Z,70.20
2018-05-24T07:46:32.117Z,71.40
2018-05-24T07:49:00.338Z,71.30
2018-05-24T07:51:28.562Z,71.80
2018-05-24T07:53:56.792Z,71.60
2018-05-24T07:56:25.786Z,67.90
2018-05-24T07:58:54.791Z,64.60
2018-05-24T08:01:23.058Z,64.50
2018-05-24T08:03:52.039Z,61.80
2018-05-24T08:06:21.021Z,59.10
2018-05-24T08:08:49.667Z,59.00
2018-05-24T08:11:17.884Z,52.90
2018-05-24T08:13:46.178Z,50.90
2018-05-24T08:16:14.395Z,53.20
2018-05-24T08:18:42.617Z,59.00
2018-05-24T08:21:11.618Z,65.40
2018-05-24T08:23:40.669Z,64.00
2018-05-24T08:26:08.878Z,64.00
2018-05-24T08:28:37.941Z,65.60
2018-05-24T08:31:06.184Z,65.60
2018-05-24T08:33:34.413Z,69.00
2018-05-24T08:36:02.645Z,70.70
2018-05-24T08:38:30.886Z,72.20
2018-05-24T08:40:59.967Z,73.10
2018-05-24T08:43:28.891Z,72.20
2018-05-24T08:45:57.151Z,72.20
2018-05-24T08:48:26.141Z,70.90
2018-05-24T08:50:55.166Z,70.70
2018-05-24T08:53:23.470Z,70.80
2018-05-24T08:55:51.709Z,71.90
2018-05-24T08:58:19.937Z,72.90
2018-05-24T09:00:48.189Z,74.10
2018-05-24T09:03:16.515Z,75.40
2018-05-24T09:05:44.777Z,76.60
2018-05-24T09:08:13.167Z,76.80
2018-05-24T09:10:42.201Z,76.80
2018-05-24T09:13:10.428Z,76.80
2018-05-24T09:15:38.680Z,76.80
2018-05-24T09:18:06.947Z,77.10
2018-05-24T09:20:35.172Z,75.10
2018-05-24T09:23:04.174Z,73.80
2018-05-24T09:25:32.411Z,73.80
2018-05-24T09:28:01.260Z,72.70
2018-05-24T09:30:29.415Z,71.90
2018-05-24T09:32:57.665Z,71.00
2018-05-24T09:35:25.875Z,70.90
2018-05-24T09:37:54.122Z,71.50
2018-05-24T09:40:23.139Z,70.80
2018-05-24T09:42:52.133Z,70.80
2018-05-24T09:45:20.354Z,70.80
2018-05-24T09:47:48.618Z,70.60
2018-05-24T09:50:16.886Z,70.60
2018-05-24T09:52:45.783Z,70.50
2018-05-24T09:55:14.051Z,69.90
2018-05-24T09:57:42.302Z,69.00
2018-05-24T10:00:10.547Z,69.70
2018-05-24T10:02:39.522Z,72.20
2018-05-24T10:05:07.759Z,72.20
2018-05-24T10:07:35.975Z,72.00
2018-05-24T10:10:04.248Z,72.30
2018-05-24T10:12:32.608Z,72.30
2018-05-24T10:15:00.844Z,71.10
2018-05-24T10:17:29.114Z,70.30
2018-05-24T10:19:57.309Z,70.60
2018-05-24T10:22:25.567Z,68.80
2018-05-24T10:24:53.810Z,68.30
2018-05-24T10:27:22.084Z,67.60
2018-05-24T10:29:50.291Z,68.70
2018-05-24T10:32:19.325Z,68.90
2018-05-24T10:34:47.625Z,68.80
2018-05-24T10:37:15.831Z,68.90
2018-05-24T10:39:44.870Z,69.30
2018-05-24T10:42:13.088Z,68.50
2018-05-24T10:44:41.330Z,67.50
2018-05-24T10:47:11.413Z,69.20
2018-05-24T10:49:39.748Z,69.60
2018-05-24T10:52:08.059Z,69.30
2018-05-24T10:54:36.278Z,69.60
2018-05-24T10:57:04.643Z,69.90
2018-05-24T10:59:32.947Z,70.50
2018-05-24T11:02:01.115Z,71.40
2018-05-24T11:04:29.344Z,72.50
2018-05-24T11:06:57.576Z,72.80
2018-05-24T11:09:25.873Z,72.50
2018-05-24T11:11:54.837Z,74.20
2018-05-24T11:14:23.071Z,73.80
2018-05-24T11:16:51.320Z,73.50
2018-05-24T11:19:19.548Z,73.90
2018-05-24T11:21:47.782Z,74.80
2018-05-24T11:24:16.016Z,74.90
2018-05-24T11:26:44.761Z,74.70
2018-05-24T11:29:12.988Z,74.00
2018-05-24T11:31:42.904Z,74.20
2018-05-24T11:34:11.093Z,73.90
2018-05-24T11:36:40.093Z,73.10
2018-05-24T11:39:09.113Z,72.70
2018-05-24T11:41:37.320Z,72.70
2018-05-24T11:44:05.564Z,72.10
2018-05-24T11:46:33.778Z,71.80
2018-05-24T11:49:02.460Z,72.10
2018-05-24T11:51:30.710Z,71.60
2018-05-24T11:53:59.016Z,71.50
2018-05-24T11:56:27.260Z,71.60
2018-05-24T11:58:55.574Z,70.80
2018-05-24T12:01:23.800Z,70.60
2018-05-24T12:03:52.024Z,70.50
2018-05-24T12:06:21.900Z,69.80
2018-05-24T12:08:50.150Z,70.30
2018-05-24T12:11:19.146Z,69.40
2018-05-24T12:13:47.419Z,69.30
2018-05-24T12:16:16.394Z,69.80
2018-05-24T12:18:45.403Z,70.30
2018-05-24T12:21:13.649Z,70.30
2018-05-24T12:23:41.898Z,70.20
2018-05-24T12:26:10.125Z,71.70
2018-05-24T12:28:38.330Z,73.50
2018-05-24T12:31:06.538Z,73.10
2018-05-24T12:33:34.782Z,73.80
2018-05-24T12:36:03.061Z,73.80
2018-05-24T12:38:31.285Z,74.10
2018-05-24T12:40:59.532Z,73.80
2018-05-24T12:43:27.746Z,73.30
2018-05-24T12:45:55.969Z,72.50
2018-05-24T12:48:24.190Z,71.20
2018-05-24T12:50:52.396Z,70.00
2018-05-24T12:53:20.629Z,68.20
2018-05-24T12:55:48.868Z,67.50
2018-05-24T12:58:17.107Z,67.60
2018-05-24T13:00:46.088Z,68.40
2018-05-24T13:03:14.316Z,68.30
2018-05-24T13:05:43.264Z,68.30
2018-05-24T13:08:12.267Z,68.60
2018-05-24T13:10:40.513Z,68.70
2018-05-24T13:13:08.751Z,68.50
2018-05-24T13:15:37.002Z,68.40
2018-05-24T13:18:05.242Z,68.60
2018-05-24T13:20:34.239Z,68.60
2018-05-24T13:23:02.498Z,68.60
2018-05-24T13:25:30.787Z,67.90
2018-05-24T13:27:58.987Z,68.60
2018-05-24T13:30:27.238Z,69.30
2018-05-24T13:32:55.478Z,69.40
2018-05-24T13:35:23.728Z,72.40
2018-05-24T13:37:51.968Z,74.30
2018-05-24T13:40:20.246Z,73.30
2018-05-24T13:42:48.564Z,73.70
2018-05-24T13:45:16.987Z,74.10
2018-05-24T13:47:45.197Z,73.60
2018-05-24T13:50:13.430Z,74.10
2018-05-24T13:52:42.001Z,74.80
2018-05-24T13:55:10.963Z,75.90
2018-05-24T13:57:45.060Z,75.90
2018-05-24T14:00:13.311Z,76.30
2018-05-24T14:02:42.345Z,78.30
2018-05-24T14:05:10.632Z,78.20
2018-05-24T14:07:38.855Z,77.80
2018-05-24T14:10:08.061Z,77.20
2018-05-24T14:12:36.320Z,76.30
2018-05-24T14:15:04.603Z,74.80
2018-05-24T14:17:32.874Z,72.40
2018-05-24T14:20:01.064Z,72.10
2018-05-24T14:22:29.277Z,71.80
2018-05-24T14:24:57.539Z,72.10
2018-05-24T14:27:25.765Z,72.60
2018-05-24T14:29:53.990Z,73.60
2018-05-24T14:32:22.240Z,74.40
2018-05-24T14:34:51.238Z,76.10
2018-05-24T14:37:20.221Z,77.10
2018-05-24T14:39:48.445Z,77.10
2018-05-24T14:42:16.681Z,77.20
2018-05-24T14:44:45.722Z,78.90
2018-05-24T14:47:14.679Z,79.50
2018-05-24T14:49:42.958Z,79.50
2018-05-24T14:52:11.231Z,79.00
2018-05-24T14:54:40.222Z,81.70
2018-05-24T14:57:09.222Z,82.70
2018-05-24T14:59:37.457Z,82.70
2018-05-24T15:02:05.665Z,82.20
2018-05-24T15:04:34.670Z,81.30
2018-05-24T15:07:02.898Z,81.30
2018-05-24T15:09:31.121Z,81.60
2018-05-24T15:11:59.339Z,81.80
2018-05-24T15:14:27.570Z,81.90
2018-05-24T15:16:56.550Z,81.70
2018-05-24T15:19:25.556Z,82.40
2018-05-24T15:21:53.803Z,82.40
2018-05-24T15:24:22.109Z,83.10
2018-05-24T15:26:50.375Z,83.00
2018-05-24T15:29:18.574Z,82.10
2018-05-24T15:31:46.798Z,83.80
2018-05-24T15:34:15.009Z,83.30
2018-05-24T15:36:43.249Z,84.20
2018-05-24T15:39:11.510Z,84.00
2018-05-24T15:41:39.752Z,84.60
2018-05-24T15:44:08.000Z,84.50
2018-05-24T15:46:36.995Z,85.40
2018-05-24T15:49:05.210Z,85.40
2018-05-24T15:51:33.455Z,85.40
2018-05-24T15:54:01.670Z,85.50
2018-05-24T15:56:29.916Z,85.00
2018-05-24T15:58:58.139Z,85.30
2018-05-24T16:01:27.130Z,86.50
2018-05-24T16:03:55.381Z,86.00
2018-05-24T16:06:23.614Z,85.60
2018-05-24T16:08:51.837Z,86.30
2018-05-24T16:11:20.106Z,86.30
2018-05-24T16:13:48.556Z,86.80
2018-05-24T16:16:16.654Z,87.10
2018-05-24T16:18:44.882Z,88.50
2018-05-24T16:21:13.875Z,88.70
2018-05-24T16:23:42.106Z,88.70
2018-05-24T16:26:10.364Z,89.00
2018-05-24T16:28:38.621Z,89.90
2018-05-24T16:31:06.878Z,90.10
2018-05-24T16:33:35.130Z,90.70
2018-05-24T16:36:03.395Z,91.00
2018-05-24T16:38:31.618Z,91.10
2018-05-24T16:41:00.607Z,90.70
2018-05-24T16:43:29.611Z,90.80
2018-05-24T16:45:57.864Z,90.80
2018-05-24T16:48:26.099Z,91.20
2018-05-24T16:50:54.344Z,90.50
2018-05-24T16:53:23.354Z,91.00
2018-05-24T16:55:51.636Z,91.00
2018-05-24T16:58:19.818Z,91.20
2018-05-24T17:00:48.060Z,90.80
2018-05-24T17:03:16.279Z,90.60
2018-05-24T17:05:44.570Z,89.00
2018-05-24T17:08:12.775Z,90.20
2018-05-24T17:10:41.762Z,88.90
2018-05-24T17:13:10.771Z,87.80
2018-05-24T17:15:39.018Z,87.70
2018-05-24T17:18:07.244Z,89.10
2018-05-24T17:20:35.532Z,88.70
2018-05-24T17:23:03.761Z,89.50
2018-05-24T17:25:32.031Z,89.50
2018-05-24T17:28:00.275Z,88.70
2018-05-24T17:30:28.558Z,88.80
2018-05-24T17:32:56.755Z,89.00
2018-05-24T17:35:25.750Z,89.00
2018-05-24T17:37:54.755Z,88.50
2018-05-24T17:40:23.754Z,89.40
2018-05-24T17:42:51.994Z,89.40
2018-05-24T17:45:20.234Z,90.00
2018-05-24T17:47:48.443Z,90.40
2018-05-24T17:50:16.754Z,90.70
2018-05-24T17:52:44.985Z,90.60
2018-05-24T17:55:13.201Z,89.30
2018-05-24T17:57:42.192Z,89.70
2018-05-24T18:00:11.169Z,89.30
2018-05-24T18:02:40.158Z,89.60
2018-05-24T18:05:08.439Z,89.60
2018-05-24T18:07:36.691Z,88.50
2018-05-24T18:10:04.907Z,88.30
2018-05-24T18:12:33.136Z,88.40
2018-05-24T18:15:01.363Z,87.40
2018-05-24T18:17:30.387Z,89.40
2018-05-24T18:19:58.603Z,89.40
2018-05-24T18:22:27.704Z,90.40
2018-05-24T18:24:55.912Z,90.80
2018-05-24T18:27:24.174Z,91.10
2018-05-24T18:29:52.384Z,91.40
2018-05-24T18:32:20.610Z,91.70
2018-05-24T18:34:49.614Z,92.00
2018-05-24T18:37:17.870Z,91.90
2018-05-24T18:39:46.072Z,91.80
2018-05-24T18:42:14.281Z,91.50
2018-05-24T18:44:42.523Z,91.30
2018-05-24T18:47:10.770Z,91.30
2018-05-24T18:49:39.032Z,91.20
2018-05-24T18:52:07.270Z,90.80
2018-05-24T18:54:35.481Z,90.10
2018-05-24T18:57:03.787Z,90.60
2018-05-24T18:59:32.016Z,90.40
2018-05-24T19:02:00.266Z,90.00
2018-05-24T19:04:28.464Z,90.00
2018-05-24T19:06:56.721Z,90.30
2018-05-24T19:09:24.934Z,90.00
2018-05-24T19:11:53.226Z,90.20
2018-05-24T19:14:21.463Z,89.80
2018-05-24T19:16:49.689Z,89.90
2018-05-24T19:19:18.001Z,89.30
2018-05-24T19:21:46.177Z,89.80
2018-05-24T19:24:14.453Z,90.00
2018-05-24T19:26:42.668Z,90.10
2018-05-24T19:29:10.922Z,89.80
2018-05-24T19:31:39.127Z,90.00
2018-05-24T19:34:07.378Z,90.20
2018-05-24T19:36:35.599Z,90.20
2018-05-24T19:39:05.442Z,90.30
2018-05-24T19:41:33.728Z,90.30
2018-05-24T19:44:01.963Z,90.40
2018-05-24T19:46:30.338Z,90.80
2018-05-24T19:48:59.070Z,90.80
2018-05-24T19:51:27.306Z,91.00
2018-05-24T19:53:55.577Z,91.00
2018-05-24T19:56:23.778Z,91.10
2018-05-24T19:58:52.918Z,91.10
2018-05-24T20:01:21.138Z,91.00
2018-05-24T20:03:49.366Z,91.20
2018-05-24T20:06:17.620Z,91.10
2018-05-24T20:08:45.911Z,91.10
2018-05-24T20:11:14.162Z,91.20
2018-05-24T20:13:42.390Z,91.20
2018-05-24T20:16:10.953Z,91.20
2018-05-24T20:18:39.181Z,91.20
2018-05-24T20:21:07.419Z,91.20
2018-05-24T20:23:35.638Z,91.70
2018-05-24T20:26:03.870Z,92.10
2018-05-24T20:28:32.132Z,91.90
2018-05-24T20:31:00.567Z,91.50
2018-05-24T20:33:28.887Z,91.50
2018-05-24T20:35:57.254Z,92.00
2018-05-24T20:38:25.486Z,92.10
2018-05-24T20:40:53.696Z,92.00
2018-05-24T20:43:21.923Z,92.20
2018-05-24T20:45:50.141Z,92.10
2018-05-24T20:48:18.596Z,91.80
2018-05-24T20:50:48.264Z,92.20
2018-05-24T20:53:17.208Z,92.10
2018-05-24T20:55:45.471Z,92.20
2018-05-24T20:58:13.720Z,92.20
2018-05-24T21:00:41.923Z,92.00
2018-05-24T21:03:10.147Z,92.00
2018-05-24T21:05:38.374Z,91.90
2018-05-24T21:08:06.746Z,91.70
2018-05-24T21:10:35.822Z,91.60
2018-05-24T21:13:04.809Z,91.60
2018-05-24T21:15:33.834Z,91.70
2018-05-24T21:18:02.091Z,91.60
2018-05-24T21:20:31.099Z,91.60
2018-05-24T21:22:59.315Z,91.60
2018-05-24T21:25:27.569Z,91.60
2018-05-24T21:27:55.798Z,91.90
2018-05-24T21:30:24.061Z,92.20
2018-05-24T21:32:52.269Z,92.80
2018-05-24T21:35:20.707Z,92.80
2018-05-24T21:37:49.084Z,92.60
2018-05-24T21:40:17.334Z,92.40
2018-05-24T21:42:45.550Z,92.20
2018-05-24T21:45:13.759Z,92.30
2018-05-24T21:47:41.976Z,92.10
2018-05-24T21:50:10.206Z,92.10
2018-05-24T21:52:38.429Z,92.20
2018-05-24T21:55:06.631Z,92.20
2018-05-24T21:57:35.638Z,92.20
2018-05-24T22:00:03.865Z,92.20
2018-05-24T22:02:32.074Z,92.20
2018-05-24T22:05:01.073Z,92.20
2018-05-24T22:07:30.082Z,92.20
2018-05-24T22:09:58.280Z,92.20
2018-05-24T22:12:26.507Z,92.20
2018-05-24T22:14:54.731Z,92.30
2018-05-24T22:17:22.950Z,92.20
2018-05-24T22:19:51.197Z,92.50
2018-05-24T22:22:19.431Z,92.40
2018-05-24T22:24:47.686Z,92.20
2018-05-24T22:27:15.901Z,92.40
2018-05-24T22:29:44.131Z,92.60
2018-05-24T22:32:12.372Z,92.70
2018-05-24T22:34:40.616Z,92.60
2018-05-24T22:37:08.820Z,92.40
2018-05-24T22:39:37.073Z,92.40
2018-05-24T22:42:05.316Z,92.50
2018-05-24T22:44:33.531Z,92.60
2018-05-24T22:47:01.760Z,92.80
2018-05-24T22:49:29.987Z,92.80
2018-05-24T22:51:58.203Z,92.70
2018-05-24T22:54:26.439Z,92.60
2018-05-24T22:56:54.654Z,92.90
2018-05-24T22:59:22.888Z,93.10
2018-05-24T23:01:51.118Z,93.30
2018-05-24T23:04:19.355Z,93.30
2018-05-24T23:06:47.617Z,93.20
2018-05-24T23:09:15.891Z,93.10
2018-05-24T23:11:44.154Z,93.30
2018-05-24T23:14:12.386Z,93.00
2018-05-24T23:16:40.606Z,93.30
2018-05-24T23:19:08.837Z,93.30
2018-05-24T23:21:37.861Z,93.20
2018-05-24T23:24:06.090Z,93.20
2018-05-24T23:26:34.325Z,93.30
2018-05-24T23:29:02.529Z,93.20
2018-05-24T23:31:30.754Z,93.30
2018-05-24T23:33:59.751Z,93.30
2018-05-24T23:36:27.969Z,93.30
2018-05-24T23:38:57.668Z,93.20
2018-05-24T23:41:26.728Z,93.30
2018-05-24T23:43:55.024Z,93.40
2018-05-24T23:46:23.256Z,93.50
2018-05-24T23:48:51.478Z,93.40
2018-05-24T23:51:19.695Z,93.40
2018-05-24T23:53:47.903Z,93.40
2018-05-24T23:56:16.893Z,93.40
2018-05-24T23:58:45.919Z,93.30
